Time;durP1;ratioP1;P1;durP2;ratioP2;P2;SDS_P1;SDS_P2;PMS_P1;PMS_P2;Temp;Humidity;BMP_temperature;BMP_pressure;BME280_temperature;BME280_humidity;BME280_pressure;Samples;Min_cycle;Max_cycle;Signal;HPM_P1;HPM_P2
2022/04/01 00:01:30;;;;;;;9.52;7.32;;;;;;;;;;5112696;28;20023;-59
2022/04/01 00:04:03;;;;;;;7.82;5.85;;;;;;;;;;5114056;28;20019;-59
2022/04/01 00:06:48;;;;;;;11.73;8.95;;;;;;;;;;5112637;28;20032;-59
2022/04/01 00:09:27;;;;;;;;;;;;;;;;;;;;;
2022/04/01 00:12:06;;;;;;;9.23;7.60;;;;;;;;;;5115102;28;20054;-59
2022/04/01 00:14:41;;;;;;;9.50;8.32;;;;;;;;;;5112888;28;20030;-59
2022/04/01 00:17:10;;;;;;;10.38;8.57;;;;;;;;;;5113026;28;20084;-59
2022/04/01 00:19:50;;;;;;;15.70;8.50;;;;;;;;;;5112961;28;20027;-59
2022/04/01 00:22:19;;;;;;;10.55;7.50;;;;;;;;;;5112669;28;20053;-59
2022/04/01 00:25:03;;;;;;;11.57;8.25;;;;;;;;;;5113221;28;20118;-59
2022/04/01 00:27:40;;;;;;;11.85;8.07;;;;;;;;;;5114448;28;20479;-59
2022/04/01 00:30:16;;;;;;;12.80;8.38;;;;;;;;;;5114635;28;20024;-59
2022/04/01 00:32:42;;;;;;;8.32;6.97;;;;;;;;;;5117525;28;20024;-59
2022/04/01 00:35:18;;;;;;;9.45;7.55;;;;;;;;;;5117889;28;20027;-59
2022/04/01 00:37:53;;;;;;;12.50;9.65;;;;;;;;;;5117409;28;20034;-59
2022/04/01 00:40:35;;;;;;;12.38;9.13;;;;;;;;;;5118244;28;20415;-59
2022/04/01 00:43:12;;;;;;;9.30;7.78;;;;;;;;;;5116639;28;20366;-59
2022/04/01 00:45:38;;;;;;;11.75;8.65;;;;;;;;;;5116637;28;20042;-59
2022/04/01 00:48:04;;;;;;;13.20;8.13;;;;;;;;;;5115936;28;20075;-59
2022/04/01 00:50:32;;;;;;;12.45;7.75;;;;;;;;;;5118042;28;20062;-59
2022/04/01 00:53:02;;;;;;;8.38;7.40;;;;;;;;;;5118251;28;20026;-59
2022/04/01 00:55:37;;;;;;;7.65;6.22;;;;;;;;;;5118497;28;20039;-59
2022/04/01 00:58:21;;;;;;;11.02;8.02;;;;;;;;;;5117878;28;20153;-59
2022/04/01 01:00:57;;;;;;;8.98;7.57;;;;;;;;;;5117309;28;20076;-59
2022/04/01 01:03:36;;;;;;;11.38;8.75;;;;;;;;;;5117765;28;20055;-59
2022/04/01 01:08:56;;;;;;;7.88;5.55;;;;;;;;;;5115365;28;20122;-59
2022/04/01 01:11:25;;;;;;;9.10;6.68;;;;;;;;;;5115852;28;20450;-59
2022/04/01 01:13:58;;;;;;;9.82;7.03;;;;;;;;;;5115917;28;20477;-59
2022/04/01 01:16:27;;;;;;;9.13;7.30;;;;;;;;;;5117072;28;20040;-59
2022/04/01 01:19:40;;;;;;;7.93;7.10;;;;;;;;;;5117999;28;20023;-59
2022/04/01 01:22:13;;;;;;;9.90;7.50;;;;;;;;;;5115918;28;20389;-59
2022/04/01 01:25:01;;;;;;;10.13;7.53;;;;;;;;;;5116297;28;20027;-59
2022/04/01 01:27:43;;;;;;;9.85;6.97;;;;;;;;;;5115759;28;20031;-59
2022/04/01 01:30:33;;;;;;;10.10;7.25;;;;;;;;;;5117805;28;20139;-59
2022/04/01 01:33:01;;;;;;;9.25;7.05;;;;;;;;;;5117178;28;20018;-59
2022/04/01 01:35:32;;;;;;;9.85;7.28;;;;;;;;;;5116434;28;20034;-59
2022/04/01 01:38:06;;;;;;;8.45;6.47;;;;;;;;;;5116722;28;20020;-59
2022/04/01 01:40:50;;;;;;;13.20;8.40;;;;;;;;;;5117462;28;20024;-59
2022/04/01 01:43:22;;;;;;;8.45;7.32;;;;;;;;;;5117126;28;20534;-59
2022/04/01 01:45:59;;;;;;;;;;;;;;;;;;;;;
2022/04/01 01:48:30;;;;;;;7.43;6.65;;;;;;;;;;5115670;28;20036;-59
2022/04/01 01:56:50;;;;;;;8.50;7.55;;;;;;;;;;5116809;28;20056;-59
2022/04/01 01:59:21;;;;;;;10.00;7.10;;;;;;;;;;5116348;28;20098;-59
2022/04/01 02:02:14;;;;;;;8.52;6.93;;;;;;;;;;5116673;28;20026;-59
2022/04/01 02:04:43;;;;;;;7.88;7.00;;;;;;;;;;5107680;28;20535;-59
2022/04/01 02:07:10;;;;;;;10.68;7.53;;;;;;;;;;5114873;28;20061;-59
2022/04/01 02:09:43;;;;;;;9.15;6.68;;;;;;;;;;5115010;28;20034;-59
2022/04/01 02:12:30;;;;;;;10.48;7.47;;;;;;;;;;5116412;28;20077;-59
2022/04/01 02:15:10;;;;;;;9.32;7.82;;;;;;;;;;5115300;28;20418;-59
2022/04/01 02:17:51;;;;;;;7.97;7.18;;;;;;;;;;5114343;28;20058;-59
2022/04/01 02:20:24;;;;;;;10.35;7.80;;;;;;;;;;5115990;28;20062;-59
2022/04/01 02:23:11;;;;;;;8.13;7.28;;;;;;;;;;5115447;28;20058;-59
2022/04/01 02:25:56;;;;;;;7.63;6.90;;;;;;;;;;5115651;28;20047;-59
2022/04/01 02:28:36;;;;;;;12.32;9.80;;;;;;;;;;5115427;28;20408;-59
2022/04/01 02:31:04;;;;;;;10.63;9.65;;;;;;;;;;5116487;28;20110;-59
2022/04/01 02:33:44;;;;;;;8.45;7.50;;;;;;;;;;5114492;28;20072;-59
2022/04/01 02:36:38;;;;;;;9.35;8.35;;;;;;;;;;5109733;28;20043;-59
2022/04/01 02:39:12;;;;;;;10.48;8.70;;;;;;;;;;5115440;28;20031;-59
2022/04/01 02:41:41;;;;;;;13.18;9.88;;;;;;;;;;5115025;28;20059;-59
2022/04/01 02:44:13;;;;;;;11.23;8.80;;;;;;;;;;5112991;28;20362;-59
2022/04/01 02:47:07;;;;;;;11.55;8.82;;;;;;;;;;5116323;28;20066;-59
2022/04/01 02:49:45;;;;;;;11.85;9.40;;;;;;;;;;5110999;28;20036;-59
2022/04/01 02:52:14;;;;;;;11.18;7.97;;;;;;;;;;5114134;28;20020;-59
2022/04/01 02:54:43;;;;;;;9.60;8.60;;;;;;;;;;5114639;28;20133;-59
2022/04/01 02:57:16;;;;;;;9.85;8.85;;;;;;;;;;5110756;28;20389;-59
2022/04/01 03:05:50;;;;;;;10.38;9.23;;;;;;;;;;5115746;28;20127;-59
2022/04/01 03:08:26;;;;;;;;;;;;;;;;;;;;;
2022/04/01 03:10:58;;;;;;;11.95;9.77;;;;;;;;;;5112166;28;20036;-59
2022/04/01 03:13:25;;;;;;;10.48;8.88;;;;;;;;;;5113691;28;20077;-59
2022/04/01 03:16:08;;;;;;;15.48;11.35;;;;;;;;;;5115079;28;20110;-59
2022/04/01 03:19:00;;;;;;;10.63;8.65;;;;;;;;;;5115488;28;20011;-59
2022/04/01 03:21:35;;;;;;;14.98;12.23;;;;;;;;;;5115412;28;20031;-59
2022/04/01 03:24:18;;;;;;;13.45;10.02;;;;;;;;;;5115132;28;20035;-59
2022/04/01 03:27:17;;;;;;;10.93;8.77;;;;;;;;;;5114468;28;20111;-59
2022/04/01 03:30:03;;;;;;;12.25;8.90;;;;;;;;;;5099342;28;20031;-59
2022/04/01 03:32:37;;;;;;;12.23;9.50;;;;;;;;;;5112966;28;20473;-59
2022/04/01 03:35:05;;;;;;;9.98;7.70;;;;;;;;;;5114789;28;20038;-59
2022/04/01 03:37:34;;;;;;;11.65;9.57;;;;;;;;;;5113155;28;20022;-59
2022/04/01 03:40:06;;;;;;;16.35;10.05;;;;;;;;;;5113144;28;20030;-59
2022/04/01 03:42:32;;;;;;;13.55;9.80;;;;;;;;;;5113423;28;20024;-59
2022/04/01 03:45:06;;;;;;;12.70;11.30;;;;;;;;;;5114585;28;20054;-59
2022/04/01 03:47:43;;;;;;;13.70;8.82;;;;;;;;;;5113100;28;20032;-59
2022/04/01 03:50:14;;;;;;;10.40;8.75;;;;;;;;;;5114484;28;20041;-59
2022/04/01 03:53:04;;;;;;;12.30;9.80;;;;;;;;;;5113273;28;20422;-59
2022/04/01 03:58:33;;;;;;;12.30;9.63;;;;;;;;;;5114149;28;20081;-59
2022/04/01 04:01:04;;;;;;;9.85;8.80;;;;;;;;;;5109720;28;20086;-59
2022/04/01 04:03:34;;;;;;;10.90;7.97;;;;;;;;;;5113699;28;20035;-59
2022/04/01 04:06:09;;;;;;;11.27;7.88;;;;;;;;;;5113404;28;20061;-59
2022/04/01 04:08:42;;;;;;;10.13;8.75;;;;;;;;;;5112850;28;20034;-59
2022/04/01 04:11:24;;;;;;;10.68;9.45;;;;;;;;;;5112689;28;20026;-59
2022/04/01 04:14:17;;;;;;;9.98;8.23;;;;;;;;;;5115180;28;20020;-59
2022/04/01 04:16:56;;;;;;;11.55;9.00;;;;;;;;;;5114569;28;20098;-59
2022/04/01 04:19:42;;;;;;;11.02;8.07;;;;;;;;;;5112743;28;20028;-59
2022/04/01 04:22:31;;;;;;;9.55;8.55;;;;;;;;;;5113446;28;20055;-59
2022/04/01 04:25:04;;;;;;;9.23;8.25;;;;;;;;;;5114210;28;20055;-59
2022/04/01 04:27:41;;;;;;;8.10;6.97;;;;;;;;;;5113373;28;20122;-59
2022/04/01 04:30:11;;;;;;;9.85;7.93;;;;;;;;;;5113286;28;20032;-59
2022/04/01 04:33:00;;;;;;;11.83;9.23;;;;;;;;;;5114376;28;20046;-58
2022/04/01 04:35:47;;;;;;;11.60;8.38;;;;;;;;;;5100835;28;20410;-59
2022/04/01 04:38:31;;;;;;;8.98;7.57;;;;;;;;;;5114216;28;20456;-59
2022/04/01 04:44:39;;;;;;;7.97;6.03;;;;;;;;;;5113908;28;20023;-59
2022/04/01 04:47:33;;;;;;;10.90;7.95;;;;;;;;;;5111818;28;20042;-59
2022/04/01 04:50:06;;;;;;;7.28;6.35;;;;;;;;;;5098366;28;20051;-59
2022/04/01 04:52:35;;;;;;;9.63;6.82;;;;;;;;;;5113548;28;20115;-59
2022/04/01 04:55:27;;;;;;;10.43;7.55;;;;;;;;;;5113948;28;20427;-59
2022/04/01 04:58:02;;;;;;;9.07;8.07;;;;;;;;;;5111655;28;20031;-59
2022/04/01 05:00:31;;;;;;;8.30;5.93;;;;;;;;;;5113474;28;20431;-59
2022/04/01 05:03:24;;;;;;;9.00;6.47;;;;;;;;;;5113878;28;20036;-59
2022/04/01 05:05:56;;;;;;;12.63;7.65;;;;;;;;;;5113779;28;20034;-59
2022/04/01 05:08:50;;;;;;;8.23;6.93;;;;;;;;;;5114062;28;20419;-59
2022/04/01 05:11:42;;;;;;;9.55;7.38;;;;;;;;;;5111996;28;20019;-59
2022/04/01 05:14:34;;;;;;;9.52;6.10;;;;;;;;;;5113783;28;20068;-59
2022/04/01 05:17:18;;;;;;;7.10;5.70;;;;;;;;;;5098359;28;20389;-58
2022/04/01 05:19:58;;;;;;;8.77;7.45;;;;;;;;;;5115919;28;20020;-58
2022/04/01 05:22:40;;;;;;;;;;;;;;;;;;;;;
2022/04/01 05:25:16;;;;;;;6.20;5.60;;;;;;;;;;5117798;28;20053;-58
2022/04/01 05:27:58;;;;;;;7.35;5.90;;;;;;;;;;5117358;28;20027;-58
2022/04/01 05:30:32;;;;;;;5.95;5.10;;;;;;;;;;5116810;28;20028;-58
2022/04/01 05:33:17;;;;;;;9.00;5.95;;;;;;;;;;5116357;28;20059;-58
2022/04/01 05:35:51;;;;;;;6.07;4.97;;;;;;;;;;5117028;28;20116;-58
2022/04/01 05:38:34;;;;;;;8.27;5.60;;;;;;;;;;5099702;28;20435;-58
2022/04/01 05:41:11;;;;;;;8.70;7.13;;;;;;;;;;5099081;28;20530;-58
2022/04/01 05:43:42;;;;;;;8.10;6.05;;;;;;;;;;5116934;28;20144;-58
2022/04/01 05:46:29;;;;;;;;;;;;;;;;;;5115610;28;20039;-58
2022/04/01 05:48:57;;;;;;;8.90;5.60;;;;;;;;;;5116460;28;19998;-58
2022/04/01 05:51:31;;;;;;;7.30;5.10;;;;;;;;;;5115016;28;20072;-58
2022/04/01 05:54:02;;;;;;;8.63;6.60;;;;;;;;;;5113566;28;20524;-58
2022/04/01 05:56:35;;;;;;;8.65;6.88;;;;;;;;;;5116588;28;20020;-58
2022/04/01 05:59:26;;;;;;;6.15;5.57;;;;;;;;;;5114702;28;20030;-58
2022/04/01 06:02:17;;;;;;;6.97;5.90;;;;;;;;;;5116564;28;20084;-58
2022/04/01 06:04:58;;;;;;;8.35;6.22;;;;;;;;;;5114864;28;20076;-57
2022/04/01 06:07:30;;;;;;;;;;;;;;;;;;5116505;28;20476;-57
2022/04/01 06:10:15;;;;;;;7.50;6.38;;;;;;;;;;5114237;28;19911;-58
2022/04/01 06:12:54;;;;;;;8.90;5.85;;;;;;;;;;5116064;28;20024;-58
2022/04/01 06:15:45;;;;;;;8.90;7.88;;;;;;;;;;5115302;28;20036;-58
2022/04/01 06:18:11;;;;;;;;;;;;;;;;;;5116664;28;20090;-57
2022/04/01 06:20:38;;;;;;;9.35;6.38;;;;;;;;;;5115611;28;19943;-58
2022/04/01 06:23:29;;;;;;;10.35;8.02;;;;;;;;;;5115598;28;20043;-57
2022/04/01 06:25:59;;;;;;;8.85;6.47;;;;;;;;;;5099263;28;20054;-58
2022/04/01 06:28:38;;;;;;;;;;;;;;;;;;5115314;28;20035;-58
2022/04/01 06:31:16;;;;;;;8.00;7.05;;;;;;;;;;5116998;28;19930;-58
2022/04/01 06:33:58;;;;;;;7.93;5.50;;;;;;;;;;5116650;28;20026;-58
2022/04/01 06:36:42;;;;;;;11.07;7.68;;;;;;;;;;5116684;28;20023;-58
2022/04/01 06:39:34;;;;;;;10.20;6.97;;;;;;;;;;5115716;28;20043;-58
2022/04/01 06:42:11;;;;;;;8.02;6.95;;;;;;;;;;5103921;28;20035;-57
2022/04/01 06:44:52;;;;;;;8.50;6.60;;;;;;;;;;5113702;28;20050;-57
2022/04/01 06:47:20;;;;;;;;;;;;;;;;;;5116421;28;20488;-57
2022/04/01 06:49:59;;;;;;;7.57;5.80;;;;;;;;;;5115634;28;19930;-58
2022/04/01 06:52:41;;;;;;;6.22;4.93;;;;;;;;;;5113073;28;20047;-58
2022/04/01 06:55:19;;;;;;;8.05;6.32;;;;;;;;;;5113796;28;20036;-58
2022/04/01 06:57:55;;;;;;;12.00;7.60;;;;;;;;;;5114324;28;20027;-56
2022/04/01 07:00:35;;;;;;;7.68;6.93;;;;;;;;;;5115665;28;20039;-58
2022/04/01 07:03:06;;;;;;;9.70;7.95;;;;;;;;;;5110824;28;20469;-58
2022/04/01 07:05:53;;;;;;;7.30;5.93;;;;;;;;;;5113889;28;20035;-58
2022/04/01 07:08:28;;;;;;;8.73;6.53;;;;;;;;;;5114923;28;20024;-58
2022/04/01 07:11:01;;;;;;;8.63;7.35;;;;;;;;;;5115136;28;20043;-57
2022/04/01 07:13:37;;;;;;;8.50;6.95;;;;;;;;;;5114217;28;20119;-58
2022/04/01 07:16:14;;;;;;;10.48;8.10;;;;;;;;;;5113731;28;20057;-57
2022/04/01 07:18:49;;;;;;;9.40;7.63;;;;;;;;;;5113624;28;20498;-57
2022/04/01 07:21:31;;;;;;;9.40;7.95;;;;;;;;;;5113850;28;20038;-58
2022/04/01 07:24:00;;;;;;;12.00;8.83;;;;;;;;;;5115124;28;20092;-57
2022/04/01 07:26:32;;;;;;;10.20;8.00;;;;;;;;;;5114637;28;20051;-58
2022/04/01 07:29:08;;;;;;;9.63;7.03;;;;;;;;;;5114749;28;20024;-58
2022/04/01 07:35:04;;;;;;;8.77;7.82;;;;;;;;;;5114842;28;20092;-57
2022/04/01 07:37:42;;;;;;;6.60;5.90;;;;;;;;;;5115373;28;20449;-58
2022/04/01 07:40:18;;;;;;;10.43;8.68;;;;;;;;;;5114622;28;20193;-57
2022/04/01 07:43:09;;;;;;;8.93;8.03;;;;;;;;;;5114396;28;20020;-58
2022/04/01 07:48:54;;;;;;;11.40;8.20;;;;;;;;;;5113390;28;20031;-57
2022/04/01 07:51:32;;;;;;;10.23;7.23;;;;;;;;;;5115142;28;20358;-57
2022/04/01 07:54:08;;;;;;;9.52;8.55;;;;;;;;;;5113371;28;20031;-58
2022/04/01 07:56:57;;;;;;;11.05;8.77;;;;;;;;;;5115362;28;20471;-57
2022/04/01 07:59:35;;;;;;;9.80;8.55;;;;;;;;;;5114713;28;20114;-58
2022/04/01 08:05:25;;;;;;;9.15;8.02;;;;;;;;;;5114099;28;20106;-57
2022/04/01 08:08:03;;;;;;;11.32;9.15;;;;;;;;;;5114293;28;20024;-58
2022/04/01 08:10:41;;;;;;;9.88;8.35;;;;;;;;;;5112593;28;20461;-57
2022/04/01 08:13:27;;;;;;;9.93;8.40;;;;;;;;;;5113828;28;20052;-58
2022/04/01 08:15:55;;;;;;;11.18;9.80;;;;;;;;;;5097533;28;20046;-58
2022/04/01 08:18:31;;;;;;;10.65;9.23;;;;;;;;;;5113964;28;20376;-58
2022/04/01 08:21:17;;;;;;;;;;;;;;;;;;;;;
2022/04/01 08:23:51;;;;;;;12.07;8.60;;;;;;;;;;5111644;28;20046;-57
2022/04/01 08:26:37;;;;;;;11.82;9.43;;;;;;;;;;5115021;28;20111;-57
2022/04/01 08:29:03;;;;;;;10.55;9.02;;;;;;;;;;5112348;28;20028;-58
2022/04/01 08:31:41;;;;;;;7.82;7.03;;;;;;;;;;5114099;28;20016;-58
2022/04/01 08:36:59;;;;;;;9.52;7.53;;;;;;;;;;5114129;28;20469;-57
2022/04/01 08:39:43;;;;;;;9.60;7.97;;;;;;;;;;5112620;28;20027;-56
2022/04/01 08:42:15;;;;;;;12.32;8.90;;;;;;;;;;5113295;28;20019;-57
2022/04/01 08:45:02;;;;;;;10.60;9.50;;;;;;;;;;5112613;28;20069;-58
2022/04/01 08:47:33;;;;;;;9.90;8.43;;;;;;;;;;5112475;28;20114;-57
2022/04/01 08:50:05;;;;;;;9.88;8.88;;;;;;;;;;5112697;28;20055;-58
2022/04/01 08:52:35;;;;;;;10.82;9.65;;;;;;;;;;5115601;28;20019;-57
2022/04/01 08:55:29;;;;;;;11.50;9.50;;;;;;;;;;5116071;28;20381;-56
2022/04/01 08:58:08;;;;;;;10.05;9.05;;;;;;;;;;5117672;28;20024;-56
2022/04/01 09:00:58;;;;;;;10.67;9.37;;;;;;;;;;5115961;28;20035;-57
2022/04/01 09:03:33;;;;;;;11.20;9.65;;;;;;;;;;5118423;28;20019;-57
2022/04/01 09:06:05;;;;;;;10.50;8.43;;;;;;;;;;5117308;28;20074;-57
2022/04/01 09:08:58;;;;;;;10.20;8.20;;;;;;;;;;5118058;28;20030;-57
2022/04/01 09:11:35;;;;;;;9.63;7.80;;;;;;;;;;5111651;28;20035;-57
2022/04/01 09:14:22;;;;;;;10.77;9.45;;;;;;;;;;5113913;28;20027;-58
2022/04/01 09:16:51;;;;;;;9.07;8.18;;;;;;;;;;5098796;28;20032;-58
2022/04/01 09:20:14;;;;;;;10.27;9.18;;;;;;;;;;5117604;28;20059;-57
2022/04/01 09:23:05;;;;;;;7.70;6.72;;;;;;;;;;5025444;28;20045;-57
2022/04/01 09:25:47;;;;;;;6.75;6.05;;;;;;;;;;5035165;28;20036;-57
2022/04/01 09:28:39;;;;;;;8.18;6.70;;;;;;;;;;5108125;28;20043;-57
2022/04/01 09:31:26;;;;;;;8.33;6.47;;;;;;;;;;5117931;28;20016;-58
2022/04/01 09:34:20;;;;;;;7.63;6.35;;;;;;;;;;5117236;28;20031;-58
2022/04/01 09:36:58;;;;;;;9.02;7.38;;;;;;;;;;5117501;28;20027;-57
2022/04/01 09:39:43;;;;;;;7.17;6.47;;;;;;;;;;5117758;28;20466;-57
2022/04/01 09:42:19;;;;;;;7.23;6.27;;;;;;;;;;5116636;28;20070;-56
2022/04/01 09:45:09;;;;;;;7.15;5.65;;;;;;;;;;5117097;28;20050;-58
2022/04/01 09:47:44;;;;;;;7.53;5.80;;;;;;;;;;5117598;28;20040;-58
2022/04/01 09:50:15;;;;;;;7.57;5.95;;;;;;;;;;5117386;28;20031;-58
2022/04/01 09:53:09;;;;;;;8.13;6.68;;;;;;;;;;5115613;28;20457;-57
2022/04/01 09:55:38;;;;;;;5.70;4.63;;;;;;;;;;5116698;28;20032;-58
2022/04/01 09:58:05;;;;;;;7.57;6.20;;;;;;;;;;5093931;28;20038;-58
2022/04/01 10:00:39;;;;;;;8.50;7.03;;;;;;;;;;5116376;28;20043;-58
2022/04/01 10:03:15;;;;;;;7.07;5.50;;;;;;;;;;5115365;28;20373;-57
2022/04/01 10:06:10;;;;;;;7.72;6.22;;;;;;;;;;5116550;28;20075;-58
2022/04/01 10:08:51;;;;;;;9.18;4.85;;;;;;;;;;5115773;28;20046;-58
2022/04/01 10:11:23;;;;;;;6.60;5.37;;;;;;;;;;5116994;28;20098;-58
2022/04/01 10:14:04;;;;;;;6.32;4.57;;;;;;;;;;5114965;28;20028;-58
2022/04/01 10:19:36;;;;;;;3.27;2.87;;;;;;;;;;5114577;28;20123;-58
2022/04/01 10:22:11;;;;;;;3.70;3.05;;;;;;;;;;5115689;28;20035;-59
2022/04/01 10:25:22;;;;;;;4.70;3.22;;;;;;;;;;5114207;28;20436;-58
2022/04/01 10:27:54;;;;;;;3.60;2.72;;;;;;;;;;5033097;28;20068;-57
2022/04/01 10:30:28;;;;;;;5.68;3.55;;;;;;;;;;5017864;28;20471;-58
2022/04/01 10:33:00;;;;;;;4.45;3.50;;;;;;;;;;5033545;28;20033;-58
2022/04/01 10:38:44;;;;;;;4.50;3.33;;;;;;;;;;5115628;28;20040;-58
2022/04/01 10:41:37;;;;;;;5.07;3.63;;;;;;;;;;5108902;28;20481;-58
2022/04/01 10:44:03;;;;;;;3.95;2.90;;;;;;;;;;5112227;28;20388;-57
2022/04/01 10:46:47;;;;;;;5.65;3.90;;;;;;;;;;5115319;28;20358;-58
2022/04/01 10:52:14;;;;;;;3.45;2.85;;;;;;;;;;5115686;28;20053;-57
2022/04/01 10:54:59;;;;;;;3.00;1.77;;;;;;;;;;5115428;28;20073;-57
2022/04/01 11:00:28;;;;;;;3.73;3.00;;;;;;;;;;5107115;28;20034;-57
2022/04/01 11:03:14;;;;;;;4.00;3.45;;;;;;;;;;5113151;28;20110;-57
2022/04/01 11:05:46;;;;;;;3.07;2.60;;;;;;;;;;5110827;28;20469;-58
2022/04/01 11:08:34;;;;;;;3.90;3.13;;;;;;;;;;5114619;28;20046;-56
2022/04/01 11:11:10;;;;;;;2.37;1.83;;;;;;;;;;5115178;28;20072;-55
2022/04/01 11:13:40;;;;;;;3.65;2.92;;;;;;;;;;5114089;27;20024;-58
2022/04/01 11:16:35;;;;;;;4.60;3.30;;;;;;;;;;5115018;28;20016;-56
2022/04/01 11:19:17;;;;;;;3.35;2.65;;;;;;;;;;5113094;28;20073;-57
2022/04/01 11:22:12;;;;;;;4.60;3.92;;;;;;;;;;5114661;28;20076;-56
2022/04/01 11:24:50;;;;;;;3.17;2.42;;;;;;;;;;5111984;28;20054;-58
2022/04/01 11:27:28;;;;;;;4.22;3.55;;;;;;;;;;5113187;28;20058;-58
2022/04/01 11:30:14;;;;;;;3.95;2.58;;;;;;;;;;5113937;28;20046;-57
2022/04/01 11:32:47;;;;;;;3.07;2.77;;;;;;;;;;5112812;28;20024;-56
2022/04/01 11:35:35;;;;;;;2.83;2.27;;;;;;;;;;5113129;28;20035;-57
2022/04/01 11:38:14;;;;;;;4.60;3.30;;;;;;;;;;5113607;28;20036;-55
2022/04/01 11:40:54;;;;;;;;;;;;;;;;;;;;;
2022/04/01 11:43:28;;;;;;;3.47;2.92;;;;;;;;;;5111960;28;20043;-58
2022/04/01 11:46:10;;;;;;;3.70;2.33;;;;;;;;;;5108646;28;20045;-57
2022/04/01 11:48:50;;;;;;;4.13;3.70;;;;;;;;;;5112914;28;20126;-57
2022/04/01 11:51:28;;;;;;;5.00;3.47;;;;;;;;;;5111909;28;20028;-57
2022/04/01 11:53:57;;;;;;;5.40;3.00;;;;;;;;;;5112497;28;20064;-57
2022/04/01 11:56:50;;;;;;;;;;;;;;;;;;;;;
2022/04/01 11:59:28;;;;;;;4.65;3.40;;;;;;;;;;5115089;28;20016;-56
2022/04/01 12:01:58;;;;;;;3.40;2.60;;;;;;;;;;5112688;28;20028;-58
2022/04/01 12:04:38;;;;;;;4.07;3.63;;;;;;;;;;5097041;28;20030;-57
2022/04/01 12:10:23;;;;;;;;;;;;;;;;;;;;;
2022/04/01 12:13:09;;;;;;;2.93;2.53;;;;;;;;;;5106380;28;20038;-58
2022/04/01 12:15:54;;;;;;;3.17;2.57;;;;;;;;;;5114107;28;20106;-57
2022/04/01 12:18:31;;;;;;;4.47;3.67;;;;;;;;;;5112405;28;20012;-57
2022/04/01 12:21:05;;;;;;;5.13;4.37;;;;;;;;;;5111865;28;20108;-58
2022/04/01 12:23:44;;;;;;;3.83;2.97;;;;;;;;;;5113421;28;20056;-57
2022/04/01 12:26:29;;;;;;;4.70;3.53;;;;;;;;;;5113284;28;20027;-56
2022/04/01 12:29:24;;;;;;;;;;;;;;;;;;;;;
2022/04/01 12:32:02;;;;;;;3.50;2.88;;;;;;;;;;5118627;28;20373;-56
2022/04/01 12:34:50;;;;;;;3.97;3.57;;;;;;;;;;5115695;28;20038;-54
2022/04/01 12:37:21;;;;;;;5.40;4.00;;;;;;;;;;5114763;28;20035;-56
2022/04/01 12:40:05;;;;;;;5.40;3.83;;;;;;;;;;5099611;28;20031;-56
2022/04/01 12:42:37;;;;;;;6.00;4.83;;;;;;;;;;5117915;28;20027;-58
2022/04/01 12:45:06;;;;;;;5.17;4.53;;;;;;;;;;5118300;28;20106;-57
2022/04/01 12:47:44;;;;;;;4.90;3.90;;;;;;;;;;5117454;28;20037;-57
2022/04/01 12:50:29;;;;;;;7.27;4.70;;;;;;;;;;5117506;28;20111;-57
2022/04/01 12:53:19;;;;;;;6.30;5.07;;;;;;;;;;5117538;28;20406;-57
2022/04/01 12:56:09;;;;;;;4.95;4.28;;;;;;;;;;5105215;28;20050;-57
2022/04/01 12:58:49;;;;;;;5.40;4.75;;;;;;;;;;5110513;28;20382;-57
2022/04/01 13:01:28;;;;;;;6.27;4.53;;;;;;;;;;5117791;28;20024;-57
2022/04/01 13:04:14;;;;;;;5.47;4.27;;;;;;;;;;5115101;28;20034;-58
2022/04/01 13:06:43;;;;;;;4.33;3.87;;;;;;;;;;5118220;28;20027;-57
2022/04/01 13:09:13;;;;;;;5.37;4.87;;;;;;;;;;5115802;28;20040;-57
2022/04/01 13:11:50;;;;;;;4.32;3.50;;;;;;;;;;5115845;28;20031;-57
2022/04/01 13:14:26;;;;;;;8.93;6.53;;;;;;;;;;5117327;28;20066;-58
2022/04/01 13:16:55;;;;;;;6.50;4.23;;;;;;;;;;5117753;28;20034;-58
2022/04/01 13:19:32;;;;;;;5.87;5.27;;;;;;;;;;5117253;28;20102;-57
2022/04/01 13:22:16;;;;;;;6.73;4.97;;;;;;;;;;5117658;28;20027;-58
2022/04/01 13:24:55;;;;;;;2.67;2.20;;;;;;;;;;5116622;28;20111;-57
2022/04/01 13:30:25;;;;;;;4.17;3.77;;;;;;;;;;5117027;28;20122;-54
2022/04/01 13:33:12;;;;;;;5.50;3.90;;;;;;;;;;5117696;28;20031;-58
2022/04/01 13:35:52;;;;;;;4.57;4.13;;;;;;;;;;5116878;28;20111;-55
2022/04/01 13:38:28;;;;;;;6.20;5.03;;;;;;;;;;5117025;27;20027;-56
2022/04/01 13:41:14;;;;;;;8.30;5.77;;;;;;;;;;5116029;28;20137;-56
2022/04/01 13:44:08;;;;;;;7.13;5.70;;;;;;;;;;5117089;28;20023;-57
2022/04/01 13:46:42;;;;;;;5.33;4.83;;;;;;;;;;5115377;28;20027;-58
2022/04/01 13:49:20;;;;;;;4.47;4.07;;;;;;;;;;5116973;28;20024;-58
2022/04/01 13:51:49;;;;;;;6.30;5.33;;;;;;;;;;5116820;28;20039;-57
2022/04/01 13:57:11;;;;;;;8.10;6.80;;;;;;;;;;5096861;28;20437;-57
2022/04/01 13:59:52;;;;;;;8.50;7.60;;;;;;;;;;5063957;28;20180;-58
2022/04/01 14:02:36;;;;;;;8.60;6.70;;;;;;;;;;5116840;28;20496;-57
2022/04/01 14:05:15;;;;;;;7.43;6.57;;;;;;;;;;5116606;28;20034;-57
2022/04/01 14:07:45;;;;;;;7.43;6.47;;;;;;;;;;5114479;28;20043;-57
2022/04/01 14:10:18;;;;;;;;;;;;;;;;;;5116624;28;20020;-57
2022/04/01 14:12:48;;;;;;;7.17;6.20;;;;;;;;;;5115942;28;20041;-57
2022/04/01 14:15:26;;;;;;;7.67;6.33;;;;;;;;;;5116559;28;20049;-57
2022/04/01 14:20:46;;;;;;;8.73;7.23;;;;;;;;;;5113039;28;20357;-57
2022/04/01 14:23:45;;;;;;;8.50;7.20;;;;;;;;;;5116024;28;20468;-57
2022/04/01 14:26:34;;;;;;;5.73;4.83;;;;;;;;;;5101253;28;20047;-58
2022/04/01 14:34:36;;;;;;;9.40;8.47;;;;;;;;;;5108091;28;20028;-57
2022/04/01 14:40:13;;;;;;;9.33;7.93;;;;;;;;;;5116082;28;20041;-57
2022/04/01 14:42:59;;;;;;;10.87;9.10;;;;;;;;;;5115472;28;20106;-56
2022/04/01 14:45:40;;;;;;;9.53;8.20;;;;;;;;;;5113631;28;20122;-54
2022/04/01 14:48:29;;;;;;;8.10;7.27;;;;;;;;;;5115721;28;20548;-57
2022/04/01 14:53:47;;;;;;;9.00;8.20;;;;;;;;;;5109324;28;20028;-57
2022/04/01 14:56:34;;;;;;;10.87;7.30;;;;;;;;;;5113945;28;20032;-56
2022/04/01 14:59:16;;;;;;;8.50;7.67;;;;;;;;;;5110634;28;20392;-58
2022/04/01 15:02:00;;;;;;;8.53;7.63;;;;;;;;;;5115160;28;20031;-57
2022/04/01 15:04:37;;;;;;;9.77;7.50;;;;;;;;;;5114784;28;20356;-58
2022/04/01 15:07:13;;;;;;;6.38;5.75;;;;;;;;;;5115016;28;20453;-58
2022/04/01 15:09:41;;;;;;;8.03;6.93;;;;;;;;;;5113731;28;20032;-57
2022/04/01 15:12:11;;;;;;;8.60;7.30;;;;;;;;;;5113436;28;20034;-56
2022/04/01 15:17:54;;;;;;;7.17;6.13;;;;;;;;;;5108705;28;20036;-58
2022/04/01 15:20:26;;;;;;;9.15;8.32;;;;;;;;;;5115637;28;20050;-57
2022/04/01 15:26:14;;;;;;;10.77;9.07;;;;;;;;;;5099235;28;20489;-56
2022/04/01 15:28:47;;;;;;;7.83;6.40;;;;;;;;;;5092766;28;20504;-57
2022/04/01 15:31:23;;;;;;;8.20;7.47;;;;;;;;;;5092282;28;20483;-57
2022/04/01 15:34:04;;;;;;;8.13;7.33;;;;;;;;;;5092310;28;20025;-57
2022/04/01 15:36:40;;;;;;;11.17;8.33;;;;;;;;;;5076638;28;20036;-57
2022/04/01 15:39:38;;;;;;;10.33;8.07;;;;;;;;;;5075194;28;20024;-57
2022/04/01 15:42:32;;;;;;;10.80;9.37;;;;;;;;;;5049923;28;20048;-57
2022/04/01 15:45:02;;;;;;;11.83;10.63;;;;;;;;;;5092218;28;20084;-59
2022/04/01 15:48:13;;;;;;;7.77;6.63;;;;;;;;;;5077002;28;20043;-59
2022/04/01 15:50:49;;;;;;;10.83;9.73;;;;;;;;;;5091529;28;20035;-59
2022/04/01 15:53:22;;;;;;;12.63;10.13;;;;;;;;;;5093137;28;20086;-59
2022/04/01 15:55:51;;;;;;;7.43;6.73;;;;;;;;;;5114852;28;20031;-59
2022/04/01 16:01:46;;;;;;;9.73;8.83;;;;;;;;;;5113726;28;20469;-59
2022/04/01 16:04:42;;;;;;;10.33;8.70;;;;;;;;;;5114689;28;20039;-59
2022/04/01 16:07:44;;;;;;;10.53;8.57;;;;;;;;;;5114601;28;20141;-59
2022/04/01 16:10:36;;;;;;;9.03;8.17;;;;;;;;;;5031066;28;20092;-59
2022/04/01 16:16:22;;;;;;;11.00;9.90;;;;;;;;;;5068754;28;20071;-59
2022/04/01 16:19:08;;;;;;;8.07;7.27;;;;;;;;;;5114956;28;20077;-59
2022/04/01 16:21:37;;;;;;;9.53;8.60;;;;;;;;;;5113706;28;20027;-59
2022/04/01 16:24:47;;;;;;;9.03;8.13;;;;;;;;;;5111507;28;20580;-57
2022/04/01 16:27:23;;;;;;;10.50;9.50;;;;;;;;;;5072934;28;20040;-58
2022/04/01 16:30:00;;;;;;;9.00;8.10;;;;;;;;;;5114476;28;20400;-56
2022/04/01 16:32:29;;;;;;;10.30;9.23;;;;;;;;;;5115067;28;20015;-57
2022/04/01 16:38:07;;;;;;;11.03;9.67;;;;;;;;;;5108030;28;20449;-56
2022/04/01 16:40:44;;;;;;;10.10;9.03;;;;;;;;;;5113528;28;20101;-56
2022/04/01 16:43:25;;;;;;;13.07;10.60;;;;;;;;;;5114312;28;20411;-57
2022/04/01 16:46:15;;;;;;;14.67;11.47;;;;;;;;;;5114608;28;20020;-57
2022/04/01 16:48:48;;;;;;;9.00;8.10;;;;;;;;;;5113964;28;20053;-57
2022/04/01 16:51:18;;;;;;;10.87;9.73;;;;;;;;;;5114092;28;20120;-57
2022/04/01 16:53:47;;;;;;;13.00;11.80;;;;;;;;;;5114286;28;20361;-55
2022/04/01 16:56:17;;;;;;;11.13;9.93;;;;;;;;;;5114120;28;20084;-57
2022/04/01 17:01:36;;;;;;;13.50;9.27;;;;;;;;;;5109377;28;20437;-55
2022/04/01 17:04:08;;;;;;;12.67;11.40;;;;;;;;;;5113833;28;20028;-55
2022/04/01 17:12:35;;;;;;;12.25;10.45;;;;;;;;;;5113801;28;20027;-56
2022/04/01 17:15:33;;;;;;;11.03;9.00;;;;;;;;;;5116392;28;20107;-56
2022/04/01 17:18:15;;;;;;;11.40;10.30;;;;;;;;;;5046795;28;20038;-56
2022/04/01 17:20:50;;;;;;;9.43;7.67;;;;;;;;;;5117531;28;20024;-55
2022/04/01 17:23:36;;;;;;;12.70;11.43;;;;;;;;;;5114861;28;20381;-55
2022/04/01 17:26:31;;;;;;;11.73;9.97;;;;;;;;;;5103681;27;20031;-57
2022/04/01 17:29:39;;;;;;;11.53;10.30;;;;;;;;;;5116117;28;20036;-54
2022/04/01 17:32:14;;;;;;;12.67;10.43;;;;;;;;;;5112869;28;20038;-57